Terminal Aerodrome Forecast
Issued by NWS

Home | Current Version | Previous Version | Text Only | Print | Product List | Glossary On
Versions: 1 2 3 4 5 6 7 8 9 10 11 12 13 14 15 16 17 18 19 20 21 22 23
000
FTUS43 KGRB 011200 AAA
TAFMTW
TAF AMD
KMTW 011250Z 0113/0212 19007KT 3SM BR VCSH SCT004 BKN100
      WS012/20035KT
      TEMPO 0113/0115 1/2SM FG BKN003
     FM011500 19007KT 4SM BR VCSH SCT005 BKN090 WS012/20035KT
      TEMPO 0115/0117 1/2SM -SHRA FG BKN003
     FM011700 20010G16KT 3SM SHRA VCTS BKN020CB OVC040
     FM012000 24015G22KT P6SM VCSH BKN025 BKN090
     FM020100 27010KT P6SM SCT035 BKN200
     FM020600 27003KT P6SM SCT200=

USA.gov is the U.S. government's official web portal to all federal, state and local government web resources and services.